createdAt,value
2022-09-23T00:02:09.365Z,100.00
2022-09-23T00:04:37.115Z,100.00
2022-09-23T00:07:03.474Z,100.00
2022-09-23T00:09:29.834Z,100.00
2022-09-23T00:11:56.163Z,100.00
2022-09-23T00:14:22.526Z,100.00
2022-09-23T00:16:48.943Z,100.00
2022-09-23T00:19:15.326Z,100.00
2022-09-23T00:21:43.075Z,100.00
2022-09-23T00:24:09.489Z,100.00
2022-09-23T00:26:35.889Z,100.00
2022-09-23T00:29:02.270Z,100.00
2022-09-23T00:31:28.699Z,100.00
2022-09-23T00:33:55.420Z,100.00
2022-09-23T00:36:21.883Z,100.00
2022-09-23T00:38:49.953Z,100.00
2022-09-23T00:41:16.348Z,100.00
2022-09-23T00:43:44.021Z,100.00
2022-09-23T00:46:13.522Z,100.00
2022-09-23T00:48:41.449Z,100.00
2022-09-23T00:51:09.073Z,100.00
2022-09-23T00:53:35.731Z,100.00
2022-09-23T00:56:05.841Z,100.00
2022-09-23T00:58:33.966Z,100.00
2022-09-23T01:01:01.237Z,100.00
2022-09-23T01:03:27.685Z,100.00
2022-09-23T01:05:54.197Z,100.00
2022-09-23T01:08:21.062Z,100.00
2022-09-23T01:10:51.976Z,100.00
2022-09-23T01:13:24.758Z,100.00
2022-09-23T01:15:53.762Z,100.00
2022-09-23T01:18:26.940Z,100.00
2022-09-23T01:20:58.014Z,100.00
2022-09-23T01:23:42.380Z,100.00
2022-09-23T01:26:19.878Z,100.00
2022-09-23T01:28:57.191Z,100.00
2022-09-23T01:31:26.929Z,100.00
2022-09-23T01:33:56.867Z,100.00
2022-09-23T01:36:24.515Z,100.00
2022-09-23T01:38:54.907Z,100.00
2022-09-23T01:41:28.129Z,100.00
2022-09-23T01:43:59.387Z,100.00
2022-09-23T01:46:29.988Z,100.00
2022-09-23T01:49:00.938Z,100.00
2022-09-23T01:51:30.767Z,100.00
2022-09-23T01:54:00.505Z,100.00
2022-09-23T01:56:28.767Z,100.00
2022-09-23T01:58:58.639Z,100.00
2022-09-23T02:01:29.844Z,100.00
2022-09-23T02:04:00.979Z,100.00
2022-09-23T02:06:29.910Z,100.00
2022-09-23T02:08:58.275Z,100.00
2022-09-23T02:11:24.762Z,100.00
2022-09-23T02:13:52.402Z,100.00
2022-09-23T02:16:22.578Z,100.00
2022-09-23T02:18:53.194Z,100.00
2022-09-23T02:21:21.696Z,100.00
2022-09-23T02:23:49.926Z,100.00
2022-09-23T02:26:18.972Z,100.00
2022-09-23T02:28:50.429Z,100.00
2022-09-23T02:31:21.481Z,100.00
2022-09-23T02:33:54.467Z,100.00
2022-09-23T02:36:25.661Z,100.00
2022-09-23T02:38:55.232Z,100.00
2022-09-23T02:41:25.673Z,100.00
2022-09-23T02:43:53.858Z,100.00
2022-09-23T02:46:21.014Z,100.00
2022-09-23T02:48:50.228Z,100.00
2022-09-23T02:51:16.652Z,100.00
2022-09-23T02:53:44.792Z,100.00
2022-09-23T02:56:14.074Z,100.00
2022-09-23T02:58:40.462Z,100.00
2022-09-23T03:01:11.650Z,100.00
2022-09-23T03:03:40.803Z,100.00
2022-09-23T03:06:09.995Z,100.00
2022-09-23T03:08:41.238Z,100.00
2022-09-23T03:11:10.796Z,100.00
2022-09-23T03:13:42.663Z,100.00
2022-09-23T03:16:14.758Z,100.00
2022-09-23T03:18:44.599Z,100.00
2022-09-23T03:21:13.893Z,100.00
2022-09-23T03:23:41.549Z,100.00
2022-09-23T03:26:12.259Z,100.00
2022-09-23T03:28:40.621Z,100.00
2022-09-23T03:31:07.101Z,100.00
2022-09-23T03:33:34.411Z,100.00
2022-09-23T03:36:04.307Z,100.00
2022-09-23T03:38:35.026Z,100.00
2022-09-23T03:41:02.843Z,100.00
2022-09-23T03:43:31.282Z,100.00
2022-09-23T03:45:58.854Z,100.00
2022-09-23T03:48:25.501Z,100.00
2022-09-23T03:50:51.925Z,100.00
2022-09-23T03:53:18.328Z,100.00
2022-09-23T03:55:44.716Z,100.00
2022-09-23T03:58:11.115Z,100.00
2022-09-23T04:00:38.879Z,100.00
2022-09-23T04:03:09.514Z,100.00
2022-09-23T04:05:37.859Z,100.00
2022-09-23T04:08:04.347Z,100.00
2022-09-23T04:10:30.767Z,100.00
2022-09-23T04:12:57.141Z,100.00
2022-09-23T04:15:23.571Z,100.00
2022-09-23T04:17:51.289Z,100.00
2022-09-23T04:20:17.672Z,100.00
2022-09-23T04:22:44.021Z,100.00
2022-09-23T04:25:10.396Z,100.00
2022-09-23T04:27:37.970Z,100.00
2022-09-23T04:30:05.155Z,100.00
2022-09-23T04:32:31.535Z,100.00
2022-09-23T04:34:59.729Z,100.00
2022-09-23T04:37:26.815Z,100.00
2022-09-23T04:39:53.220Z,100.00
2022-09-23T04:42:19.570Z,100.00
2022-09-23T04:44:45.969Z,100.00
2022-09-23T04:47:15.480Z,100.00
2022-09-23T04:49:41.821Z,100.00
2022-09-23T04:52:09.546Z,100.00
2022-09-23T04:54:35.896Z,100.00
2022-09-23T04:57:02.275Z,100.00
2022-09-23T04:59:28.715Z,100.00
2022-09-23T05:01:55.167Z,100.00
2022-09-23T05:04:21.617Z,100.00
2022-09-23T05:06:48.000Z,100.00
2022-09-23T05:09:16.741Z,100.00
2022-09-23T05:11:43.411Z,100.00
2022-09-23T05:14:09.877Z,100.00
2022-09-23T05:16:36.285Z,100.00
2022-09-23T05:19:02.783Z,100.00
2022-09-23T05:21:29.256Z,100.00
2022-09-23T05:23:56.256Z,100.00
2022-09-23T05:26:24.423Z,100.00
2022-09-23T05:28:50.834Z,100.00
2022-09-23T05:31:20.279Z,100.00
2022-09-23T05:33:48.297Z,100.00
2022-09-23T05:36:15.165Z,100.00
2022-09-23T05:38:41.553Z,100.00
2022-09-23T05:41:08.969Z,100.00
2022-09-23T05:43:36.907Z,100.00
2022-09-23T05:46:07.969Z,100.00
2022-09-23T05:48:35.285Z,100.00
2022-09-23T05:51:02.094Z,100.00
2022-09-23T05:53:29.106Z,100.00
2022-09-23T05:55:55.511Z,100.00
2022-09-23T05:58:22.457Z,100.00
2022-09-23T06:00:50.687Z,100.00
2022-09-23T06:03:17.805Z,100.00
2022-09-23T06:05:44.195Z,100.00
2022-09-23T06:08:11.213Z,100.00
2022-09-23T06:10:38.347Z,100.00
2022-09-23T06:13:04.837Z,100.00
2022-09-23T06:15:31.352Z,100.00
2022-09-23T06:17:59.277Z,100.00
2022-09-23T06:20:25.743Z,100.00
2022-09-23T06:22:55.242Z,100.00
2022-09-23T06:25:22.141Z,100.00
2022-09-23T06:27:52.362Z,100.00
2022-09-23T06:30:18.998Z,100.00
2022-09-23T06:32:47.769Z,100.00
2022-09-23T06:35:25.015Z,100.00
2022-09-23T06:37:53.604Z,100.00
2022-09-23T06:40:20.160Z,100.00
2022-09-23T06:42:51.487Z,100.00
2022-09-23T06:45:18.761Z,100.00
2022-09-23T06:47:45.201Z,100.00
2022-09-23T06:50:11.887Z,100.00
2022-09-23T06:52:39.648Z,100.00
2022-09-23T06:55:06.785Z,100.00
2022-09-23T06:57:33.306Z,100.00
2022-09-23T06:59:59.733Z,100.00
2022-09-23T07:02:26.285Z,100.00
2022-09-23T07:04:52.787Z,100.00
2022-09-23T07:07:19.153Z,100.00
2022-09-23T07:09:46.950Z,100.00
2022-09-23T07:12:13.430Z,100.00
2022-09-23T07:14:39.779Z,100.00
2022-09-23T07:17:06.184Z,100.00
2022-09-23T07:19:32.531Z,100.00
2022-09-23T07:21:58.866Z,100.00
2022-09-23T07:24:25.269Z,100.00
2022-09-23T07:26:53.001Z,100.00
2022-09-23T07:29:19.642Z,100.00
2022-09-23T07:31:46.102Z,100.00
2022-09-23T07:34:12.754Z,100.00
2022-09-23T07:36:39.426Z,100.00
2022-09-23T07:39:06.007Z,100.00
2022-09-23T07:41:33.111Z,100.00
2022-09-23T07:44:01.182Z,100.00
2022-09-23T07:46:28.358Z,100.00
2022-09-23T07:48:54.774Z,100.00
2022-09-23T07:51:24.934Z,100.00
2022-09-23T07:53:52.174Z,100.00
2022-09-23T07:56:19.030Z,100.00
2022-09-23T07:58:45.772Z,100.00
2022-09-23T08:01:13.655Z,100.00
2022-09-23T08:03:40.110Z,100.00
2022-09-23T08:06:07.437Z,100.00
2022-09-23T08:08:34.151Z,100.00
2022-09-23T08:11:00.958Z,100.00
2022-09-23T08:13:27.349Z,100.00
2022-09-23T08:15:55.580Z,100.00
2022-09-23T08:18:23.532Z,100.00
2022-09-23T08:20:49.877Z,100.00
2022-09-23T08:23:16.585Z,100.00
2022-09-23T08:25:46.043Z,100.00
2022-09-23T08:28:13.577Z,100.00
2022-09-23T08:30:40.078Z,100.00
2022-09-23T08:33:06.496Z,100.00
2022-09-23T08:35:34.236Z,100.00
2022-09-23T08:38:00.644Z,98.43
2022-09-23T08:40:27.085Z,96.30
2022-09-23T08:42:53.610Z,96.29
2022-09-23T08:45:21.966Z,94.64
2022-09-23T08:47:52.316Z,94.61
2022-09-23T08:50:19.596Z,91.97
2022-09-23T08:52:49.676Z,92.74
2022-09-23T08:55:16.278Z,95.29
2022-09-23T08:58:02.291Z,91.79
2022-09-23T09:00:40.458Z,89.77
2022-09-23T09:03:18.262Z,91.20
2022-09-23T09:05:53.756Z,87.52
2022-09-23T09:08:23.431Z,85.20
2022-09-23T09:10:53.746Z,87.16
2022-09-23T09:13:25.246Z,86.94
2022-09-23T09:15:58.329Z,85.48
2022-09-23T09:18:25.662Z,83.12
2022-09-23T09:20:57.537Z,85.38
2022-09-23T09:23:30.683Z,85.31
2022-09-23T09:25:58.852Z,83.89
2022-09-23T09:28:26.889Z,83.79
2022-09-23T09:30:55.999Z,84.81
2022-09-23T09:33:25.628Z,83.26
2022-09-23T09:36:02.358Z,82.38
2022-09-23T09:38:30.089Z,82.67
2022-09-23T09:41:01.559Z,76.92
2022-09-23T09:43:27.951Z,76.42
2022-09-23T09:46:00.775Z,75.92
2022-09-23T09:48:30.515Z,72.77
2022-09-23T09:50:56.882Z,73.70
2022-09-23T09:53:24.147Z,74.84
2022-09-23T09:56:04.593Z,75.65
2022-09-23T09:58:34.331Z,75.09
2022-09-23T10:01:00.862Z,71.73
2022-09-23T10:03:37.274Z,72.41
2022-09-23T10:06:13.442Z,72.26
2022-09-23T10:08:39.828Z,71.11
2022-09-23T10:11:12.740Z,74.60
2022-09-23T10:13:39.106Z,73.24
2022-09-23T10:16:05.546Z,74.14
2022-09-23T10:18:34.129Z,73.14
2022-09-23T10:21:02.328Z,72.17
2022-09-23T10:23:29.092Z,71.08
2022-09-23T10:25:56.686Z,70.02
2022-09-23T10:28:39.808Z,69.16
2022-09-23T10:31:07.422Z,67.99
2022-09-23T10:33:34.062Z,65.29
2022-09-23T10:36:00.543Z,67.52
2022-09-23T10:38:26.936Z,66.45
2022-09-23T10:40:54.283Z,67.16
2022-09-23T10:43:27.188Z,66.13
2022-09-23T10:45:58.252Z,65.38
2022-09-23T10:48:28.273Z,65.94
2022-09-23T10:50:56.144Z,67.31
2022-09-23T10:53:31.292Z,68.56
2022-09-23T10:56:04.712Z,66.90
2022-09-23T10:58:46.325Z,68.05
2022-09-23T11:01:25.708Z,64.01
2022-09-23T11:04:08.131Z,65.74
2022-09-23T11:06:41.591Z,64.75
2022-09-23T11:09:13.653Z,66.14
2022-09-23T11:11:45.492Z,65.16
2022-09-23T11:14:23.117Z,64.81
2022-09-23T11:17:03.803Z,64.05
2022-09-23T11:19:45.460Z,64.75
2022-09-23T11:22:17.319Z,62.89
2022-09-23T11:25:04.915Z,63.36
2022-09-23T11:27:38.654Z,60.91
2022-09-23T11:30:10.598Z,63.91
2022-09-23T11:32:46.581Z,64.88
2022-09-23T11:35:16.417Z,64.76
2022-09-23T11:37:45.682Z,62.43
2022-09-23T11:40:15.417Z,62.71
2022-09-23T11:42:47.191Z,59.88
2022-09-23T11:45:16.367Z,58.42
2022-09-23T11:47:47.637Z,57.66
2022-09-23T11:50:23.325Z,58.77
2022-09-23T11:52:52.860Z,62.14
2022-09-23T11:55:27.120Z,62.97
2022-09-23T11:57:56.845Z,61.60
2022-09-23T12:00:36.579Z,60.15
2022-09-23T12:03:08.647Z,59.26
2022-09-23T12:05:37.901Z,57.55
2022-09-23T12:08:14.021Z,58.37
2022-09-23T12:10:44.721Z,57.80
2022-09-23T12:13:15.773Z,58.42
2022-09-23T12:15:51.778Z,58.26
2022-09-23T12:18:36.182Z,57.60
2022-09-23T12:24:28.397Z,57.38
2022-09-23T12:26:56.943Z,58.06
2022-09-23T12:29:26.727Z,59.20
2022-09-23T12:31:53.400Z,57.88
2022-09-23T12:34:22.708Z,55.79
2022-09-23T12:37:04.487Z,54.53
2022-09-23T12:39:38.529Z,55.87
2022-09-23T12:42:14.920Z,55.31
2022-09-23T12:44:44.294Z,53.81
2022-09-23T12:47:46.699Z,57.62
2022-09-23T12:50:32.963Z,52.10
2022-09-23T12:53:24.679Z,53.01
2022-09-23T12:55:51.530Z,52.56
2022-09-23T12:58:37.998Z,53.54
2022-09-23T13:01:08.033Z,52.85
2022-09-23T13:03:34.550Z,53.17
2022-09-23T13:06:01.487Z,55.30
2022-09-23T13:08:29.595Z,57.17
2022-09-23T13:10:58.154Z,56.31
2022-09-23T13:13:26.713Z,55.68
2022-09-23T13:15:54.281Z,55.51
2022-09-23T13:18:24.371Z,54.23
2022-09-23T13:20:52.114Z,55.55
2022-09-23T13:23:22.867Z,55.57
2022-09-23T13:25:52.763Z,55.04
2022-09-23T13:28:27.743Z,55.36
2022-09-23T13:30:54.721Z,53.75
2022-09-23T13:33:25.652Z,55.38
2022-09-23T13:35:55.809Z,53.52
2022-09-23T13:38:23.344Z,53.25
2022-09-23T13:40:51.958Z,53.72
2022-09-23T13:43:22.237Z,52.65
2022-09-23T13:45:52.515Z,52.58
2022-09-23T13:48:23.862Z,53.08
2022-09-23T13:50:51.049Z,54.15
2022-09-23T13:53:21.728Z,52.72
2022-09-23T13:55:58.663Z,54.40
2022-09-23T13:58:28.692Z,55.68
2022-09-23T14:00:55.139Z,52.74
2022-09-23T14:03:23.675Z,53.09
2022-09-23T14:05:51.113Z,51.78
2022-09-23T14:08:17.690Z,52.27
2022-09-23T14:10:44.726Z,51.93
2022-09-23T14:13:14.414Z,52.18
2022-09-23T14:15:42.304Z,49.78
2022-09-23T14:18:08.875Z,49.42
2022-09-23T14:20:45.104Z,50.77
2022-09-23T14:23:12.351Z,51.42
2022-09-23T14:25:38.969Z,50.69
2022-09-23T14:28:05.435Z,50.40
2022-09-23T14:30:31.946Z,50.68
2022-09-23T14:32:59.746Z,47.87
2022-09-23T14:35:27.568Z,48.72
2022-09-23T14:37:55.666Z,49.84
2022-09-23T14:40:24.509Z,51.37
2022-09-23T14:42:52.215Z,52.20
2022-09-23T14:45:19.817Z,51.86
2022-09-23T14:47:48.396Z,52.46
2022-09-23T14:50:18.326Z,52.27
2022-09-23T14:52:48.183Z,52.00
2022-09-23T14:55:15.410Z,51.94
2022-09-23T14:57:42.243Z,52.73
2022-09-23T15:00:14.118Z,53.70
2022-09-23T15:02:43.071Z,52.43
2022-09-23T15:05:18.596Z,51.31
2022-09-23T15:07:48.240Z,52.83
2022-09-23T15:10:17.602Z,52.53
2022-09-23T15:12:44.891Z,53.11
2022-09-23T15:15:12.494Z,52.76
2022-09-23T15:17:39.050Z,55.39
2022-09-23T15:20:07.251Z,54.86
2022-09-23T15:22:43.505Z,50.06
2022-09-23T15:25:14.613Z,49.54
2022-09-23T15:27:40.986Z,49.97
2022-09-23T15:30:15.433Z,51.18
2022-09-23T15:35:08.891Z,51.00
2022-09-23T15:37:41.002Z,51.47
2022-09-23T15:40:24.855Z,51.59
2022-09-23T15:43:15.559Z,51.84
2022-09-23T15:46:02.049Z,53.47
2022-09-23T15:48:37.665Z,51.33
2022-09-23T15:51:13.009Z,52.65
2022-09-23T15:53:49.834Z,52.09
2022-09-23T15:56:20.013Z,52.49
2022-09-23T15:58:48.822Z,54.13
2022-09-23T16:01:24.845Z,55.22
2022-09-23T16:03:57.130Z,57.63
2022-09-23T16:06:31.024Z,57.24
2022-09-23T16:09:07.538Z,57.62
2022-09-23T16:11:43.017Z,56.41
2022-09-23T16:14:13.370Z,59.02
2022-09-23T16:16:39.959Z,61.10
2022-09-23T16:19:06.725Z,62.94
2022-09-23T16:21:35.673Z,63.53
2022-09-23T16:24:03.088Z,62.26
2022-09-23T16:26:32.626Z,64.29
2022-09-23T16:29:00.371Z,64.53
2022-09-23T16:31:29.075Z,64.56
2022-09-23T16:33:55.842Z,66.43
2022-09-23T16:36:24.844Z,66.46
2022-09-23T16:38:53.674Z,65.24
2022-09-23T16:41:20.851Z,66.18
2022-09-23T16:43:47.521Z,67.44
2022-09-23T16:46:17.545Z,67.04
2022-09-23T16:48:49.743Z,68.46
2022-09-23T16:51:21.192Z,68.31
2022-09-23T16:53:48.810Z,69.22
2022-09-23T16:56:18.444Z,70.48
2022-09-23T16:58:45.520Z,73.32
2022-09-23T17:01:15.153Z,74.13
2022-09-23T17:03:41.824Z,74.70
2022-09-23T17:06:10.466Z,76.24
2022-09-23T17:08:37.223Z,79.76
2022-09-23T17:11:04.089Z,81.62
2022-09-23T17:13:32.132Z,78.96
2022-09-23T17:15:59.672Z,80.08
2022-09-23T17:18:26.946Z,81.03
2022-09-23T17:20:58.241Z,81.92
2022-09-23T17:23:25.091Z,81.61
2022-09-23T17:25:51.900Z,84.00
2022-09-23T17:28:18.702Z,84.01
2022-09-23T17:30:46.768Z,88.03
2022-09-23T17:33:13.774Z,87.86
2022-09-23T17:35:40.783Z,90.50
2022-09-23T17:38:07.527Z,91.08
2022-09-23T17:40:34.323Z,91.81
2022-09-23T17:43:01.007Z,93.10
2022-09-23T17:45:28.184Z,96.55
2022-09-23T17:47:56.459Z,99.91
2022-09-23T17:50:23.128Z,100.00
2022-09-23T17:52:50.547Z,100.00
2022-09-23T17:55:17.138Z,100.00
2022-09-23T17:57:43.722Z,100.00
2022-09-23T18:00:11.652Z,99.83
2022-09-23T18:02:38.365Z,100.00
2022-09-23T18:21:25.345Z,100.00
2022-09-23T18:23:52.220Z,100.00
2022-09-23T18:26:22.190Z,100.00
2022-09-23T18:28:49.240Z,100.00
2022-09-23T18:31:16.388Z,100.00
2022-09-23T18:33:43.116Z,100.00
2022-09-23T18:36:10.129Z,100.00
2022-09-23T18:38:38.063Z,100.00
2022-09-23T18:41:04.903Z,100.00
2022-09-23T18:43:37.510Z,100.00
2022-09-23T18:46:09.385Z,100.00
2022-09-23T18:48:35.980Z,100.00
2022-09-23T18:51:02.518Z,100.00
2022-09-23T18:53:29.094Z,100.00
2022-09-23T18:55:57.242Z,100.00
2022-09-23T18:58:24.030Z,100.00
2022-09-23T19:00:51.277Z,100.00
2022-09-23T19:03:18.756Z,100.00
2022-09-23T19:05:45.410Z,100.00
2022-09-23T19:08:11.983Z,100.00
2022-09-23T19:10:38.535Z,100.00
2022-09-23T19:13:06.418Z,100.00
2022-09-23T19:15:33.060Z,100.00
2022-09-23T19:17:59.614Z,100.00
2022-09-23T19:20:26.425Z,100.00
2022-09-23T19:22:53.025Z,100.00
2022-09-23T19:25:19.658Z,100.00
2022-09-23T19:27:46.323Z,100.00
2022-09-23T19:30:14.350Z,100.00
2022-09-23T19:32:44.286Z,100.00
2022-09-23T19:35:10.999Z,100.00
2022-09-23T19:37:37.538Z,100.00
2022-09-23T19:40:04.917Z,100.00
2022-09-23T19:42:31.536Z,100.00
2022-09-23T19:44:58.091Z,100.00
2022-09-23T19:47:26.055Z,100.00
2022-09-23T19:49:52.642Z,100.00
2022-09-23T19:52:19.239Z,100.00
2022-09-23T19:54:47.590Z,100.00
2022-09-23T19:57:14.152Z,100.00
2022-09-23T19:59:40.722Z,100.00
2022-09-23T20:02:09.774Z,100.00
2022-09-23T20:04:44.349Z,100.00
2022-09-23T20:07:13.637Z,100.00
2022-09-23T20:09:41.246Z,100.00
2022-09-23T20:12:09.827Z,100.00
2022-09-23T20:14:40.186Z,100.00
2022-09-23T20:17:12.422Z,100.00
2022-09-23T20:19:42.304Z,100.00
2022-09-23T20:22:09.522Z,100.00
2022-09-23T20:24:36.598Z,100.00
2022-09-23T20:27:03.290Z,100.00
2022-09-23T20:29:29.860Z,100.00
2022-09-23T20:31:56.479Z,100.00
2022-09-23T20:34:23.115Z,100.00
2022-09-23T20:36:51.052Z,100.00
2022-09-23T20:39:17.621Z,100.00
2022-09-23T20:41:44.203Z,100.00
2022-09-23T20:44:11.329Z,100.00
2022-09-23T20:46:38.193Z,100.00
2022-09-23T20:49:05.109Z,100.00
2022-09-23T20:51:31.687Z,100.00
2022-09-23T20:54:00.010Z,100.00
2022-09-23T20:56:26.701Z,100.00
2022-09-23T20:58:53.777Z,100.00
2022-09-23T21:01:21.844Z,100.00
2022-09-23T21:03:49.455Z,100.00
2022-09-23T21:06:17.513Z,100.00
2022-09-23T21:08:44.251Z,100.00
2022-09-23T21:11:14.171Z,100.00
2022-09-23T21:13:45.584Z,100.00
2022-09-23T21:16:12.412Z,100.00
2022-09-23T21:18:39.291Z,100.00
2022-09-23T21:21:06.634Z,100.00
2022-09-23T21:23:35.795Z,100.00
2022-09-23T21:26:03.387Z,100.00
2022-09-23T21:28:31.854Z,100.00
2022-09-23T21:30:59.721Z,100.00
2022-09-23T21:33:26.480Z,100.00
2022-09-23T21:35:57.078Z,100.00
2022-09-23T21:38:24.152Z,100.00
2022-09-23T21:40:58.337Z,100.00
2022-09-23T21:43:25.704Z,100.00
2022-09-23T21:45:57.688Z,100.00
2022-09-23T21:48:24.425Z,100.00
2022-09-23T21:50:54.756Z,100.00
2022-09-23T21:53:21.335Z,100.00
2022-09-23T21:55:47.890Z,100.00
2022-09-23T21:58:14.496Z,100.00
2022-09-23T22:00:41.119Z,100.00
2022-09-23T22:03:09.103Z,100.00
2022-09-23T22:05:35.673Z,100.00
2022-09-23T22:08:02.384Z,100.00
2022-09-23T22:10:28.943Z,100.00
2022-09-23T22:12:55.716Z,100.00
2022-09-23T22:15:22.314Z,100.00
2022-09-23T22:17:48.916Z,100.00
2022-09-23T22:20:16.823Z,100.00
2022-09-23T22:22:43.420Z,100.00
2022-09-23T22:25:10.103Z,100.00
2022-09-23T22:27:36.684Z,100.00
2022-09-23T22:30:03.457Z,100.00
2022-09-23T22:32:30.002Z,100.00
2022-09-23T22:34:56.809Z,100.00
2022-09-23T22:37:27.628Z,100.00
2022-09-23T22:39:54.345Z,100.00
2022-09-23T22:42:21.314Z,100.00
2022-09-23T22:44:48.065Z,100.00
2022-09-23T22:47:14.977Z,100.00
2022-09-23T22:49:41.556Z,100.00
2022-09-23T22:52:08.170Z,100.00
2022-09-23T22:54:36.126Z,100.00
2022-09-23T22:57:04.049Z,100.00
2022-09-23T22:59:30.679Z,100.00
2022-09-23T23:01:59.420Z,100.00
2022-09-23T23:04:26.064Z,100.00
2022-09-23T23:06:52.635Z,100.00
2022-09-23T23:09:19.509Z,100.00
2022-09-23T23:11:47.473Z,100.00
2022-09-23T23:14:17.342Z,100.00
2022-09-23T23:16:44.345Z,100.00
2022-09-23T23:19:13.057Z,100.00
2022-09-23T23:21:40.767Z,100.00
2022-09-23T23:24:07.314Z,100.00
2022-09-23T23:26:34.387Z,100.00
2022-09-23T23:29:02.344Z,100.00
2022-09-23T23:31:29.384Z,100.00
2022-09-23T23:33:56.041Z,100.00
2022-09-23T23:36:23.685Z,100.00
2022-09-23T23:38:51.271Z,100.00
2022-09-23T23:41:19.620Z,100.00
2022-09-23T23:43:47.085Z,100.00
2022-09-23T23:46:15.658Z,100.00
2022-09-23T23:48:42.616Z,100.00
2022-09-23T23:51:11.101Z,100.00
2022-09-23T23:53:39.165Z,100.00
2022-09-23T23:56:07.910Z,100.00
2022-09-23T23:58:35.123Z,100.00
